Bolton, United Kingdom
Current Conditions -  °F | °C
As of 12:20 PM on Thursday 23 Oct 2014 (Local Time) from EGCC Reporting Station
Broken Clouds Broken Clouds  
Wind Chill: 57°   Ceiling: 2500
Heat Index: 57°   Visibility: 6mi
Dew Point: 54°   Wind: 12mph
Humidity: 88%   Direction: 190°S
Pressure: 29.97"   Gusts: NA
Location:  53.58°N, 2.43°W
Report Text: EGCC 231120Z 19010KT 9999 BKN025 BKN040 14/12 Q1015 NOSIG
Loading
Personal Weather Stations






























Interactive Weather Map
Tropical Storm Tracking
New forecast layout! Learn more

10-Day Weather Forecast

Advertisements
Track Severe Weather on mobile